Time;durP1;ratioP1;P1;durP2;ratioP2;P2;SDS_P1;SDS_P2;PMS_P1;PMS_P2;Temp;Humidity;BMP_temperature;BMP_pressure;BME280_temperature;BME280_humidity;BME280_pressure;Samples;Min_cycle;Max_cycle;Signal;HPM_P1;HPM_P2
2022/12/14 00:00:06;;;;;;;12.60;9.88;;;17.80;40.80;;;;;;5052905;28;20131;-40
2022/12/14 00:02:33;;;;;;;11.40;9.02;;;17.90;40.90;;;;;;5052596;28;20056;-40
2022/12/14 00:05:00;;;;;;;12.25;9.23;;;17.90;40.90;;;;;;5052697;28;20416;-40
2022/12/14 00:07:26;;;;;;;11.90;9.35;;;17.90;40.90;;;;;;5052483;28;20044;-40
2022/12/14 00:09:53;;;;;;;12.23;9.50;;;17.90;40.80;;;;;;5052442;28;20049;-40
2022/12/14 00:12:20;;;;;;;13.70;9.57;;;18.00;40.80;;;;;;5051909;28;20489;-40
2022/12/14 00:14:46;;;;;;;13.10;9.82;;;18.10;43.60;;;;;;5052735;28;20059;-40
2022/12/14 00:17:14;;;;;;;12.57;9.85;;;18.00;40.70;;;;;;5052450;28;20131;-43
2022/12/14 00:19:41;;;;;;;11.15;8.88;;;18.10;40.80;;;;;;5052502;28;20408;-43
2022/12/14 00:22:08;;;;;;;11.93;9.00;;;18.10;40.80;;;;;;5051995;28;20053;-39
2022/12/14 00:24:34;;;;;;;13.57;9.88;;;18.10;40.70;;;;;;5052217;28;20055;-40
2022/12/14 00:27:01;;;;;;;11.55;9.32;;;18.10;40.60;;;;;;5052323;28;20049;-39
2022/12/14 00:29:28;;;;;;;12.45;9.65;;;18.10;40.50;;;;;;5052260;28;20504;-42
2022/12/14 00:31:55;;;;;;;12.95;9.80;;;18.20;45.00;;;;;;5051926;28;20047;-38
2022/12/14 00:34:23;;;;;;;11.55;9.38;;;18.20;40.60;;;;;;5051692;28;20045;-39
2022/12/14 00:36:50;;;;;;;12.52;9.00;;;18.20;40.50;;;;;;5051486;28;20056;-40
2022/12/14 00:39:17;;;;;;;13.40;9.63;;;18.30;40.50;;;;;;5052026;28;20045;-39
2022/12/14 00:41:43;;;;;;;12.80;9.82;;;18.30;40.40;;;;;;5052010;28;20049;-41
2022/12/14 00:44:10;;;;;;;11.40;9.52;;;18.30;40.20;;;;;;5051820;28;20433;-38
2022/12/14 00:46:37;;;;;;;12.65;9.55;;;18.40;40.30;;;;;;5052095;28;20049;-40
2022/12/14 00:49:03;;;;;;;12.70;9.73;;;18.40;40.30;;;;;;5051500;28;20048;-39
2022/12/14 00:51:31;;;;;;;12.90;9.35;;;18.40;40.30;;;;;;5051853;28;20510;-41
2022/12/14 00:53:58;;;;;;;13.50;9.35;;;18.30;44.70;;;;;;5051546;28;20063;-42
2022/12/14 00:56:25;;;;;;;13.77;9.90;;;18.40;40.10;;;;;;5051906;28;20049;-38
2022/12/14 00:58:51;;;;;;;11.15;8.77;;;18.40;44.90;;;;;;5051550;28;20478;-40
2022/12/14 01:01:18;;;;;;;12.75;9.35;;;18.40;40.10;;;;;;5050756;28;20139;-42
2022/12/14 01:03:45;;;;;;;11.70;9.32;;;18.40;40.00;;;;;;5051400;28;20049;-40
2022/12/14 01:06:17;;;;;;;11.65;8.75;;;18.50;40.10;;;;;;5051630;28;20675;-40
2022/12/14 01:08:45;;;;;;;12.75;9.77;;;18.10;44.10;;;;;;5051401;28;20051;-41
2022/12/14 01:11:12;;;;;;;12.07;8.75;;;19.00;44.30;;;;;;5051859;28;20045;-40
2022/12/14 01:13:39;;;;;;;11.18;9.02;;;18.50;39.80;;;;;;5051577;28;20053;-41
2022/12/14 01:16:07;;;;;;;11.73;9.38;;;18.50;39.90;;;;;;5051421;28;20051;-38
2022/12/14 01:18:34;;;;;;;12.95;9.18;;;18.60;40.00;;;;;;5051250;28;20053;-41
2022/12/14 01:21:09;;;;;;;10.23;8.32;;;18.50;39.90;;;;;;5051345;28;20425;-41
2022/12/14 01:23:36;;;;;;;;;;;18.60;39.80;;;;;;5052054;28;20045;-40
2022/12/14 01:26:04;;;;;;;10.98;8.75;;;18.50;40.00;;;;;;5051414;28;19972;-40
2022/12/14 01:28:30;;;;;;;12.55;8.75;;;18.60;39.80;;;;;;5051008;28;20640;-40
2022/12/14 01:30:57;;;;;;;11.45;8.93;;;18.60;39.80;;;;;;5051550;28;20056;-40
2022/12/14 01:33:24;;;;;;;11.07;8.43;;;18.60;39.80;;;;;;5051306;28;20109;-40
2022/12/14 01:35:50;;;;;;;11.25;9.40;;;18.50;44.60;;;;;;5050740;28;20045;-40
2022/12/14 01:38:17;;;;;;;11.40;9.32;;;18.60;39.80;;;;;;5051272;28;20048;-39
2022/12/14 01:40:44;;;;;;;11.85;9.15;;;18.60;39.70;;;;;;5051294;28;20056;-42
2022/12/14 01:43:13;;;;;;;12.88;9.02;;;18.50;43.40;;;;;;5051153;28;20408;-40
2022/12/14 01:45:39;;;;;;;11.30;8.98;;;18.60;39.60;;;;;;5053774;28;20492;-38
2022/12/14 01:48:07;;;;;;;11.13;8.77;;;18.60;39.60;;;;;;5070736;28;20136;-40
2022/12/14 01:50:35;;;;;;;10.90;8.68;;;18.70;39.60;;;;;;5055565;28;20052;-39
2022/12/14 01:53:02;;;;;;;11.15;8.30;;;18.60;39.60;;;;;;5054764;28;20519;-39
2022/12/14 01:55:31;;;;;;;10.38;8.32;;;18.20;43.80;;;;;;5055177;28;20507;-38
2022/12/14 01:57:59;;;;;;;12.55;8.98;;;18.70;39.60;;;;;;5054873;28;20134;-42
2022/12/14 02:00:27;;;;;;;11.40;8.73;;;18.70;39.50;;;;;;5055282;28;20132;-42
2022/12/14 02:02:57;;;;;;;12.23;8.55;;;18.70;39.50;;;;;;5054680;28;20430;-40
2022/12/14 02:05:24;;;;;;;10.80;8.40;;;18.70;39.50;;;;;;5055250;28;20049;-41
2022/12/14 02:07:51;;;;;;;10.20;8.18;;;18.70;39.50;;;;;;5053623;28;20059;-40
2022/12/14 02:10:18;;;;;;;10.80;8.93;;;18.70;39.40;;;;;;5054699;28;20041;-42
2022/12/14 02:12:47;;;;;;;10.63;8.50;;;18.80;43.50;;;;;;5054602;28;20045;-42
2022/12/14 02:15:46;;;;;;;10.70;8.20;;;18.80;39.40;;;;;;5054869;28;20049;-39
2022/12/14 02:18:16;;;;;;;9.90;8.18;;;18.80;39.40;;;;;;5054541;28;20045;-41
2022/12/14 02:20:47;;;;;;;10.50;8.38;;;18.80;39.40;;;;;;5054779;28;20494;-40
2022/12/14 02:23:53;;;;;;;11.90;9.23;;;18.80;39.30;;;;;;5054243;28;20485;-38
2022/12/14 02:26:48;;;;;;;10.85;8.52;;;18.80;39.30;;;;;;5048375;28;20053;-40
2022/12/14 02:29:33;;;;;;;10.25;8.15;;;18.80;39.30;;;;;;5054606;28;20516;-42
2022/12/14 02:32:05;;;;;;;12.35;8.52;;;19.00;43.70;;;;;;5054368;28;20393;-40
2022/12/14 02:34:35;;;;;;;10.75;8.30;;;18.80;39.20;;;;;;5054542;28;20057;-39
2022/12/14 02:37:04;;;;;;;9.90;8.05;;;18.90;39.20;;;;;;5053583;28;20390;-42
2022/12/14 02:39:34;;;;;;;11.70;8.73;;;18.90;39.20;;;;;;5054454;28;20044;-38
2022/12/14 02:42:04;;;;;;;10.32;8.05;;;18.90;39.20;;;;;;5034147;28;20049;-42
2022/12/14 02:44:34;;;;;;;11.23;8.57;;;17.90;42.40;;;;;;5034317;28;20494;-40
2022/12/14 02:47:04;;;;;;;13.10;8.45;;;18.90;39.10;;;;;;5034452;28;20049;-42
2022/12/14 02:49:41;;;;;;;10.32;8.32;;;18.90;39.10;;;;;;5054050;28;20045;-40
2022/12/14 02:55:49;;;;;;;11.25;8.95;;;18.90;39.10;;;;;;5053631;28;20428;-39
2022/12/14 02:58:19;;;;;;;10.52;8.02;;;18.90;39.00;;;;;;5054017;28;20053;-40
2022/12/14 03:00:47;;;;;;;11.82;8.57;;;18.90;38.90;;;;;;5053693;28;20052;-42
2022/12/14 03:03:13;;;;;;;11.30;8.23;;;18.90;38.90;;;;;;5053327;28;20049;-42
2022/12/14 03:05:40;;;;;;;10.18;8.30;;;18.90;38.90;;;;;;5053936;28;20051;-41
2022/12/14 03:08:08;;;;;;;11.90;8.57;;;20.00;44.20;;;;;;5053629;28;20511;-41
2022/12/14 03:10:37;;;;;;;11.80;8.80;;;19.00;38.90;;;;;;5053659;28;20071;-39
2022/12/14 03:13:08;;;;;;;10.13;8.27;;;19.00;38.90;;;;;;5053585;28;20124;-42
2022/12/14 03:15:36;;;;;;;10.80;8.45;;;19.00;38.90;;;;;;5052982;28;20051;-43
2022/12/14 03:18:05;;;;;;;12.55;8.60;;;19.00;38.90;;;;;;5053335;28;20045;-40
2022/12/14 03:20:32;;;;;;;12.10;8.50;;;19.00;38.90;;;;;;5053393;28;20496;-42
2022/12/14 03:23:00;;;;;;;10.77;8.23;;;19.00;38.90;;;;;;5053577;28;20049;-39
2022/12/14 03:25:29;;;;;;;10.15;7.53;;;19.00;38.80;;;;;;5053702;28;20049;-41
2022/12/14 03:27:59;;;;;;;11.57;8.82;;;19.00;38.80;;;;;;5053559;28;20063;-42
2022/12/14 03:30:25;;;;;;;10.60;8.07;;;19.00;38.70;;;;;;5052983;28;20501;-39
2022/12/14 03:32:54;;;;;;;9.98;7.90;;;19.00;38.70;;;;;;5053590;28;20068;-42
2022/12/14 03:35:23;;;;;;;10.82;8.23;;;19.00;38.70;;;;;;5053471;28;20049;-40
2022/12/14 03:37:51;;;;;;;11.60;8.93;;;19.00;42.80;;;;;;5052787;28;20133;-40
2022/12/14 03:40:18;;;;;;;10.50;8.23;;;19.10;38.80;;;;;;5053377;28;20473;-38
2022/12/14 03:42:49;;;;;;;9.63;8.18;;;19.10;38.80;;;;;;5052627;28;20045;-42
2022/12/14 03:45:18;;;;;;;11.60;8.80;;;19.10;38.70;;;;;;5052775;28;20045;-40
2022/12/14 03:47:52;;;;;;;10.23;8.05;;;19.20;38.70;;;;;;5052973;28;20127;-42
2022/12/14 03:50:20;;;;;;;11.27;8.32;;;19.10;38.70;;;;;;5050301;28;20044;-39
2022/12/14 03:52:52;;;;;;;10.50;7.88;;;19.10;38.70;;;;;;5052509;28;20532;-39
2022/12/14 03:55:22;;;;;;;10.38;8.00;;;19.10;38.60;;;;;;5049805;28;20405;-39
2022/12/14 03:57:58;;;;;;;11.60;8.35;;;19.10;38.60;;;;;;5052708;28;20056;-41
2022/12/14 04:00:25;;;;;;;12.10;8.38;;;19.10;38.40;;;;;;5050930;28;20055;-40
2022/12/14 04:02:54;;;;;;;11.63;8.10;;;19.10;38.40;;;;;;5052386;28;21462;-39
2022/12/14 04:05:23;;;;;;;10.60;8.43;;;19.10;42.70;;;;;;5050194;28;20098;-37
2022/12/14 04:07:55;;;;;;;10.70;7.55;;;19.10;38.50;;;;;;5051441;28;20074;-40
2022/12/14 04:18:58;;;;;;;;;;;19.10;38.30;;;;;;5051330;28;20040;-39
2022/12/14 04:21:29;;;;;;;11.35;8.30;;;19.10;38.70;;;;;;5050269;28;19928;-39
2022/12/14 04:26:46;;;;;;;11.13;7.60;;;19.10;38.40;;;;;;5048495;28;20082;-41
2022/12/14 04:32:04;;;;;;;9.70;7.55;;;18.20;39.90;;;;;;5050005;28;20052;-39
2022/12/14 04:34:30;;;;;;;10.57;7.63;;;19.10;38.30;;;;;;5050387;28;20427;-39
2022/12/14 04:36:58;;;;;;;9.88;7.95;;;19.20;38.40;;;;;;5050910;28;20055;-40
2022/12/14 04:39:27;;;;;;;10.25;7.70;;;19.10;38.30;;;;;;5051759;28;20504;-39
2022/12/14 04:41:55;;;;;;;10.63;8.30;;;19.20;38.40;;;;;;5049280;28;20049;-43
2022/12/14 04:44:22;;;;;;;11.25;8.38;;;19.30;42.70;;;;;;5051748;28;20041;-40
2022/12/14 04:46:49;;;;;;;10.40;7.90;;;18.00;42.80;;;;;;5050604;28;20049;-42
2022/12/14 04:49:18;;;;;;;10.65;8.07;;;19.20;42.10;;;;;;5051901;28;20509;-40
2022/12/14 04:51:47;;;;;;;10.63;8.32;;;19.20;38.20;;;;;;5051953;28;20052;-41
2022/12/14 04:54:16;;;;;;;10.27;7.68;;;19.20;38.20;;;;;;5051865;28;20048;-39
2022/12/14 04:56:46;;;;;;;10.30;7.85;;;19.20;38.30;;;;;;5052115;28;20075;-40
2022/12/14 04:59:12;;;;;;;12.75;8.82;;;19.20;38.30;;;;;;5051800;28;20444;-41
2022/12/14 05:01:47;;;;;;;10.32;8.43;;;19.20;38.30;;;;;;5051814;28;20147;-38
2022/12/14 05:04:18;;;;;;;10.18;7.80;;;19.20;38.30;;;;;;5051709;28;20055;-40
2022/12/14 05:06:48;;;;;;;10.57;7.65;;;18.40;42.00;;;;;;5051694;28;20045;-39
2022/12/14 05:09:17;;;;;;;11.50;7.90;;;18.40;42.30;;;;;;5051976;28;20047;-40
2022/12/14 05:11:47;;;;;;;8.88;7.47;;;19.20;38.30;;;;;;5052002;28;20049;-41
2022/12/14 05:14:17;;;;;;;11.05;7.95;;;19.30;38.30;;;;;;5051675;28;20049;-42
2022/12/14 05:16:43;;;;;;;9.93;7.70;;;19.30;38.30;;;;;;5050927;28;20045;-41
2022/12/14 05:19:10;;;;;;;9.90;8.00;;;19.30;38.30;;;;;;5050729;28;20056;-40
2022/12/14 05:21:49;;;;;;;9.70;7.75;;;19.30;38.30;;;;;;5051271;28;20053;-40
2022/12/14 05:24:16;;;;;;;9.63;7.75;;;19.30;38.30;;;;;;5049631;28;20041;-40
2022/12/14 05:26:43;;;;;;;11.50;8.32;;;19.30;38.20;;;;;;5050617;28;20580;-39
2022/12/14 05:29:11;;;;;;;10.85;7.75;;;19.40;38.30;;;;;;5051014;28;20489;-40
2022/12/14 05:31:38;;;;;;;9.45;7.32;;;19.40;38.20;;;;;;5050902;28;20049;-41
2022/12/14 05:34:05;;;;;;;9.88;7.95;;;19.40;38.20;;;;;;5050563;28;20051;-40
2022/12/14 05:36:31;;;;;;;9.93;7.68;;;19.50;42.30;;;;;;5050504;28;20539;-42
2022/12/14 05:38:58;;;;;;;11.95;8.52;;;19.40;38.10;;;;;;5049456;28;20049;-42
2022/12/14 05:41:25;;;;;;;10.10;7.18;;;19.40;38.10;;;;;;5050922;28;20439;-40
2022/12/14 05:43:51;;;;;;;9.82;7.72;;;19.50;38.20;;;;;;5050718;28;20051;-39
2022/12/14 05:46:19;;;;;;;10.43;7.93;;;19.50;38.10;;;;;;5051428;28;20049;-40
2022/12/14 05:48:46;;;;;;;9.38;7.22;;;19.50;38.10;;;;;;5051360;28;20049;-42
2022/12/14 05:51:13;;;;;;;10.23;7.90;;;19.50;38.10;;;;;;5048396;28;20049;-42
2022/12/14 05:53:40;;;;;;;11.38;7.88;;;19.50;41.80;;;;;;5050708;28;20060;-41
2022/12/14 05:56:07;;;;;;;9.88;7.40;;;19.50;37.80;;;;;;5051244;28;20055;-43
2022/12/14 05:58:34;;;;;;;12.52;8.20;;;19.60;37.80;;;;;;5050191;28;20478;-44
2022/12/14 06:01:01;;;;;;;10.77;7.95;;;19.60;37.70;;;;;;5050932;28;20489;-40
2022/12/14 06:03:29;;;;;;;11.20;7.70;;;19.60;37.70;;;;;;5050959;28;20053;-43
2022/12/14 06:06:00;;;;;;;10.75;7.80;;;19.60;37.60;;;;;;5051122;28;20179;-41
2022/12/14 06:08:27;;;;;;;9.70;7.25;;;19.60;37.60;;;;;;5051147;28;20056;-43
2022/12/14 06:11:01;;;;;;;10.38;8.00;;;19.60;42.00;;;;;;5050997;28;20045;-42
2022/12/14 06:13:28;;;;;;;10.23;7.83;;;19.60;41.80;;;;;;5051018;28;20120;-41
2022/12/14 06:15:55;;;;;;;11.05;8.20;;;19.60;37.60;;;;;;5050537;28;20049;-43
2022/12/14 06:18:23;;;;;;;10.95;7.97;;;19.60;37.70;;;;;;5050827;28;20059;-43
2022/12/14 06:20:51;;;;;;;11.30;8.23;;;19.60;37.70;;;;;;5050052;28;20052;-44
2022/12/14 06:23:17;;;;;;;13.05;7.40;;;19.60;37.60;;;;;;5050252;28;20040;-43
2022/12/14 06:25:44;;;;;;;9.57;7.68;;;19.60;37.60;;;;;;5050508;28;20060;-43
2022/12/14 06:28:11;;;;;;;9.20;7.30;;;19.40;42.10;;;;;;5050792;28;20051;-43
2022/12/14 06:30:37;;;;;;;10.65;7.57;;;19.60;37.70;;;;;;5051737;28;20075;-43
2022/12/14 06:33:04;;;;;;;9.60;7.50;;;19.60;37.70;;;;;;5054090;28;20044;-44
2022/12/14 06:35:31;;;;;;;9.98;7.45;;;19.60;37.70;;;;;;5054348;28;20045;-44
2022/12/14 06:37:59;;;;;;;9.73;7.15;;;19.80;37.80;;;;;;5053698;28;20135;-44
2022/12/14 06:40:25;;;;;;;9.38;7.07;;;19.60;37.70;;;;;;5054235;28;20055;-43
2022/12/14 06:42:52;;;;;;;9.80;7.78;;;19.60;37.70;;;;;;5054018;28;20055;-41
2022/12/14 06:45:19;;;;;;;10.60;7.60;;;19.70;37.80;;;;;;5054259;28;20053;-40
2022/12/14 06:47:46;;;;;;;9.80;7.18;;;19.70;37.80;;;;;;5053496;28;20084;-44
2022/12/14 06:50:12;;;;;;;9.35;7.25;;;19.70;37.80;;;;;;5053970;28;20055;-42
2022/12/14 06:52:39;;;;;;;9.00;7.28;;;19.70;37.80;;;;;;5054000;28;20500;-40
2022/12/14 06:55:08;;;;;;;9.93;7.78;;;19.70;37.80;;;;;;5054341;28;20049;-44
2022/12/14 06:57:34;;;;;;;11.40;7.90;;;19.70;37.80;;;;;;5053753;28;20055;-43
2022/12/14 07:00:01;;;;;;;11.82;7.38;;;19.70;37.70;;;;;;5053772;28;20112;-41
2022/12/14 07:02:28;;;;;;;10.13;7.38;;;19.80;37.80;;;;;;5053495;28;20060;-43
2022/12/14 07:04:55;;;;;;;9.93;7.28;;;19.90;40.50;;;;;;5053787;28;20059;-43
2022/12/14 07:07:21;;;;;;;10.13;7.80;;;19.80;37.70;;;;;;5053737;28;20476;-42
2022/12/14 07:09:48;;;;;;;10.88;7.25;;;19.80;37.70;;;;;;5053771;28;20581;-42
2022/12/14 07:12:16;;;;;;;11.23;7.80;;;19.80;37.70;;;;;;5052989;28;20486;-44
2022/12/14 07:14:43;;;;;;;8.93;7.07;;;19.70;39.80;;;;;;5052694;28;20045;-42
2022/12/14 07:17:10;;;;;;;10.35;7.55;;;19.80;37.60;;;;;;5053204;28;20490;-44
2022/12/14 07:19:36;;;;;;;8.93;7.03;;;19.80;37.60;;;;;;5052947;28;20052;-41
2022/12/14 07:22:04;;;;;;;9.25;7.40;;;19.80;37.60;;;;;;5053436;28;20048;-41
2022/12/14 07:24:31;;;;;;;10.30;7.43;;;19.80;37.60;;;;;;5053111;28;20059;-44
2022/12/14 07:26:59;;;;;;;9.07;7.15;;;19.80;37.50;;;;;;5051716;28;20051;-42
2022/12/14 07:29:27;;;;;;;11.50;7.50;;;19.80;37.50;;;;;;5053314;28;20041;-44
2022/12/14 07:31:53;;;;;;;9.27;7.32;;;19.80;37.50;;;;;;5051663;28;20051;-41
2022/12/14 07:34:20;;;;;;;9.80;7.00;;;19.80;37.40;;;;;;5052383;28;20055;-41
2022/12/14 07:36:49;;;;;;;10.98;7.40;;;19.80;37.40;;;;;;5053013;28;20573;-43
2022/12/14 07:39:16;;;;;;;10.50;7.38;;;19.80;37.40;;;;;;5053316;28;20048;-43
2022/12/14 07:41:43;;;;;;;10.35;7.07;;;19.90;37.50;;;;;;5053414;28;20686;-41
2022/12/14 07:44:10;;;;;;;11.60;7.60;;;19.90;37.50;;;;;;5052958;28;20053;-40
2022/12/14 07:46:38;;;;;;;12.35;7.47;;;19.70;40.60;;;;;;5052478;28;20132;-43
2022/12/14 07:49:05;;;;;;;13.07;7.15;;;19.90;37.20;;;;;;5052153;28;20525;-44
2022/12/14 07:51:34;;;;;;;13.48;7.85;;;19.90;37.10;;;;;;5052131;28;20408;-44
2022/12/14 07:54:01;;;;;;;10.88;7.40;;;19.90;37.00;;;;;;5051996;28;20559;-43
2022/12/14 07:56:29;;;;;;;11.30;7.30;;;19.90;37.00;;;;;;5051601;28;20131;-43
2022/12/14 07:58:56;;;;;;;11.13;7.43;;;19.90;37.00;;;;;;5052761;28;20049;-42
2022/12/14 08:01:23;;;;;;;10.18;7.13;;;19.90;36.90;;;;;;5052976;28;20131;-42
2022/12/14 08:03:52;;;;;;;11.32;7.63;;;19.90;36.80;;;;;;5052626;28;20535;-42
2022/12/14 08:06:20;;;;;;;12.10;8.20;;;19.90;36.80;;;;;;5053044;28;20055;-43
2022/12/14 08:08:46;;;;;;;10.73;7.63;;;19.90;36.70;;;;;;5053050;28;20049;-44
2022/12/14 08:11:13;;;;;;;9.43;6.65;;;19.90;36.80;;;;;;5052820;28;20452;-43
2022/12/14 08:13:42;;;;;;;10.77;7.82;;;19.80;36.80;;;;;;5052502;28;20513;-43
2022/12/14 08:16:11;;;;;;;9.85;7.72;;;19.80;36.70;;;;;;5052736;28;20408;-41
2022/12/14 08:18:37;;;;;;;9.63;7.20;;;19.80;36.70;;;;;;5052370;28;20057;-40
2022/12/14 08:21:06;;;;;;;12.88;8.60;;;19.80;36.70;;;;;;5052503;28;20517;-42
2022/12/14 08:23:33;;;;;;;9.35;7.18;;;19.70;36.60;;;;;;5052223;28;20048;-42
2022/12/14 08:26:00;;;;;;;12.02;8.00;;;19.90;36.60;;;;;;5052549;28;20055;-41
2022/12/14 08:28:27;;;;;;;10.85;7.97;;;19.70;36.30;;;;;;5052476;28;20059;-42
2022/12/14 08:30:54;;;;;;;11.98;8.38;;;19.50;40.70;;;;;;5052280;28;20493;-39
2022/12/14 08:33:21;;;;;;;10.45;8.10;;;19.60;36.80;;;;;;5052156;28;20501;-42
2022/12/14 08:35:48;;;;;;;11.27;8.45;;;19.80;40.40;;;;;;5052002;28;20056;-41
2022/12/14 08:38:16;;;;;;;10.95;7.88;;;19.40;36.10;;;;;;5052301;28;20055;-42
2022/12/14 08:40:43;;;;;;;10.55;7.72;;;19.40;36.10;;;;;;5052089;28;20402;-42
2022/12/14 08:43:09;;;;;;;10.68;8.07;;;19.30;36.20;;;;;;5052117;28;20048;-41
2022/12/14 08:45:36;;;;;;;10.38;8.00;;;19.20;36.20;;;;;;5051988;28;20055;-39
2022/12/14 08:48:03;;;;;;;11.68;8.65;;;19.20;36.20;;;;;;5052392;28;20059;-39
2022/12/14 08:50:29;;;;;;;9.90;7.63;;;19.20;36.30;;;;;;5051160;28;20075;-41
2022/12/14 08:52:56;;;;;;;11.73;8.52;;;19.10;36.30;;;;;;5051181;28;20049;-39
2022/12/14 08:55:24;;;;;;;11.50;8.07;;;19.00;36.30;;;;;;5051894;28;20055;-39
2022/12/14 08:57:51;;;;;;;9.70;7.60;;;19.00;36.40;;;;;;5052335;28;20051;-40
2022/12/14 09:00:18;;;;;;;11.48;8.52;;;18.90;36.40;;;;;;5051673;28;20080;-43
2022/12/14 09:02:45;;;;;;;11.05;7.72;;;18.90;36.40;;;;;;5052041;28;20408;-40
2022/12/14 09:05:11;;;;;;;9.75;7.63;;;18.80;36.40;;;;;;5051873;28;20501;-43
2022/12/14 09:07:38;;;;;;;10.27;7.47;;;18.80;36.50;;;;;;5052107;28;20053;-42
2022/12/14 09:10:06;;;;;;;11.68;8.13;;;18.70;36.50;;;;;;5051946;28;20062;-40
2022/12/14 09:12:36;;;;;;;10.43;8.15;;;18.70;36.60;;;;;;5051776;28;20416;-40
2022/12/14 09:15:02;;;;;;;9.48;7.63;;;18.70;36.80;;;;;;5051350;28;20057;-42
2022/12/14 09:17:29;;;;;;;10.70;7.75;;;18.60;36.80;;;;;;5051834;28;20056;-42
2022/12/14 09:19:56;;;;;;;10.23;7.82;;;18.60;36.80;;;;;;5051488;28;20106;-42
2022/12/14 09:22:23;;;;;;;10.32;7.50;;;18.60;37.30;;;;;;5051523;28;20080;-39
2022/12/14 09:24:51;;;;;;;10.63;7.93;;;18.10;39.40;;;;;;5051901;28;20063;-42
2022/12/14 09:27:17;;;;;;;10.07;7.80;;;19.70;41.90;;;;;;5051392;28;20045;-42
2022/12/14 09:29:45;;;;;;;10.40;8.27;;;18.60;37.00;;;;;;5051763;28;20045;-42
2022/12/14 09:32:12;;;;;;;9.63;7.13;;;17.60;36.40;;;;;;5051451;28;20048;-42
2022/12/14 09:34:39;;;;;;;9.98;7.07;;;;;;;;;;5051627;28;20044;-40
2022/12/14 09:37:06;;;;;;;8.90;7.53;;;18.50;36.60;;;;;;5050926;28;20053;-42
2022/12/14 09:39:33;;;;;;;10.63;7.68;;;18.50;37.10;;;;;;5051542;28;20076;-40
2022/12/14 09:42:09;;;;;;;8.57;7.03;;;18.50;37.10;;;;;;5051251;28;20047;-42
2022/12/14 09:44:43;;;;;;;10.32;7.85;;;18.50;37.10;;;;;;5051171;28;20386;-39
2022/12/14 09:47:13;;;;;;;10.17;7.40;;;18.50;37.20;;;;;;5051722;28;20048;-40
2022/12/14 09:49:41;;;;;;;10.13;7.43;;;18.50;37.20;;;;;;5051456;28;20048;-40
2022/12/14 09:52:10;;;;;;;9.93;7.10;;;18.60;37.10;;;;;;5051265;28;20053;-42
2022/12/14 09:54:38;;;;;;;10.32;7.68;;;18.50;37.00;;;;;;5051255;28;20055;-40
2022/12/14 09:57:07;;;;;;;12.40;7.20;;;18.50;37.10;;;;;;5051574;28;20072;-41
2022/12/14 09:59:34;;;;;;;9.13;7.05;;;18.50;37.20;;;;;;5051802;28;20056;-40
2022/12/14 10:02:05;;;;;;;9.02;7.03;;;18.50;37.20;;;;;;5051366;28;20547;-42
2022/12/14 10:04:40;;;;;;;9.80;7.55;;;18.50;37.20;;;;;;5051288;28;20131;-41
2022/12/14 10:07:11;;;;;;;9.93;7.60;;;18.50;37.30;;;;;;5054821;28;20053;-42
2022/12/14 10:09:42;;;;;;;12.00;7.57;;;18.50;37.20;;;;;;5054787;28;20136;-43
2022/12/14 10:12:17;;;;;;;8.40;6.95;;;18.50;37.20;;;;;;5055187;28;20053;-42
2022/12/14 10:14:55;;;;;;;9.05;7.00;;;18.70;40.30;;;;;;5055039;28;20055;-42
2022/12/14 10:17:28;;;;;;;9.63;7.45;;;18.60;37.40;;;;;;5055261;28;20045;-40
2022/12/14 10:19:57;;;;;;;9.38;6.47;;;18.50;42.20;;;;;;5054988;28;20080;-42
2022/12/14 10:22:25;;;;;;;9.05;6.97;;;18.60;37.30;;;;;;5054764;28;20044;-38
2022/12/14 10:24:54;;;;;;;10.20;7.65;;;18.50;40.00;;;;;;5054517;28;20045;-39
2022/12/14 10:27:22;;;;;;;9.52;7.13;;;18.60;37.30;;;;;;5054801;28;20053;-40
2022/12/14 10:29:57;;;;;;;9.45;7.05;;;18.60;41.50;;;;;;5054639;28;20494;-41
2022/12/14 10:32:28;;;;;;;9.02;6.60;;;18.60;37.30;;;;;;5054645;28;20057;-40
2022/12/14 10:34:58;;;;;;;9.25;6.95;;;18.90;40.50;;;;;;5054711;28;20053;-41
2022/12/14 10:37:26;;;;;;;9.52;6.93;;;18.60;37.30;;;;;;5054077;28;20104;-40
2022/12/14 10:40:03;;;;;;;9.50;7.03;;;18.60;37.30;;;;;;5053956;28;20052;-42
2022/12/14 10:42:34;;;;;;;9.38;6.28;;;18.60;37.20;;;;;;5054210;28;20199;-41
2022/12/14 10:45:08;;;;;;;9.75;7.10;;;18.60;37.30;;;;;;5054292;28;20055;-42
2022/12/14 10:47:37;;;;;;;8.95;7.00;;;18.60;37.30;;;;;;5052231;28;20416;-41
2022/12/14 10:50:12;;;;;;;9.18;7.18;;;18.60;37.30;;;;;;5054489;28;20041;-40
2022/12/14 10:52:40;;;;;;;;;;;18.70;37.30;;;;;;5054709;28;20056;-41
2022/12/14 10:55:12;;;;;;;8.45;6.32;;;18.70;37.50;;;;;;5054287;28;19920;-41
2022/12/14 10:57:39;;;;;;;8.45;6.60;;;18.60;37.40;;;;;;5054472;28;20053;-42
2022/12/14 11:00:11;;;;;;;8.05;6.55;;;18.60;37.30;;;;;;5054275;28;20048;-40
2022/12/14 11:02:39;;;;;;;8.35;6.88;;;18.70;37.30;;;;;;5053203;28;20049;-40
2022/12/14 11:05:16;;;;;;;9.25;6.78;;;18.70;37.30;;;;;;5054159;28;20103;-39
2022/12/14 11:07:44;;;;;;;9.18;6.70;;;18.70;37.30;;;;;;5054123;28;20063;-42
2022/12/14 11:10:15;;;;;;;10.23;6.97;;;18.70;37.30;;;;;;5054040;28;20425;-42
2022/12/14 11:12:41;;;;;;;8.77;6.78;;;18.70;37.30;;;;;;5053641;28;20049;-43
2022/12/14 11:15:21;;;;;;;8.73;6.43;;;18.70;37.30;;;;;;5053929;28;20544;-41
2022/12/14 11:17:48;;;;;;;9.02;6.60;;;18.70;37.30;;;;;;5053362;28;20049;-42
2022/12/14 11:20:19;;;;;;;9.38;6.45;;;18.70;37.30;;;;;;5053801;28;20045;-42
2022/12/14 11:22:46;;;;;;;9.32;6.38;;;18.70;37.20;;;;;;5053543;28;20045;-40
2022/12/14 11:25:33;;;;;;;8.57;6.55;;;18.70;37.20;;;;;;5053638;28;20053;-43
2022/12/14 11:28:01;;;;;;;8.25;6.00;;;18.70;37.20;;;;;;5054104;28;20175;-42
2022/12/14 11:30:28;;;;;;;8.43;6.55;;;18.70;37.20;;;;;;5053743;28;20052;-41
2022/12/14 11:32:55;;;;;;;9.10;6.40;;;18.70;37.20;;;;;;5051822;28;20099;-40
2022/12/14 11:35:23;;;;;;;7.85;6.53;;;18.70;37.30;;;;;;5053644;28;20128;-43
2022/12/14 11:37:50;;;;;;;10.95;6.53;;;18.70;37.30;;;;;;5052903;28;20072;-42
2022/12/14 11:40:20;;;;;;;8.65;6.22;;;18.70;37.20;;;;;;5053519;28;20556;-42
2022/12/14 11:42:48;;;;;;;7.38;5.90;;;18.50;41.40;;;;;;5053508;28;20045;-41
2022/12/14 11:45:30;;;;;;;8.90;6.55;;;18.70;41.90;;;;;;5053339;28;20067;-40
2022/12/14 11:48:20;;;;;;;8.57;6.20;;;18.70;37.30;;;;;;5053128;28;20048;-40
2022/12/14 11:50:49;;;;;;;8.70;5.97;;;18.80;37.40;;;;;;5033527;28;20057;-40
2022/12/14 11:53:17;;;;;;;7.72;5.82;;;18.70;37.30;;;;;;5033185;28;20060;-40
2022/12/14 11:55:45;;;;;;;8.25;5.65;;;18.60;42.00;;;;;;5033181;28;20045;-40
2022/12/14 11:58:14;;;;;;;6.55;5.43;;;18.70;37.30;;;;;;5033165;28;20053;-41
2022/12/14 12:00:45;;;;;;;8.07;5.95;;;18.80;37.30;;;;;;5033134;28;20051;-42
2022/12/14 12:03:15;;;;;;;7.20;5.90;;;18.70;37.30;;;;;;5050442;28;20045;-43
2022/12/14 12:05:43;;;;;;;7.22;5.78;;;18.70;41.50;;;;;;5052969;28;20436;-40
2022/12/14 12:08:19;;;;;;;10.32;6.28;;;18.60;41.50;;;;;;5052747;28;20044;-41
2022/12/14 12:10:46;;;;;;;7.63;5.90;;;18.70;37.20;;;;;;5053014;28;20051;-40
2022/12/14 12:13:18;;;;;;;6.70;5.43;;;18.80;37.30;;;;;;5052573;28;20048;-40
2022/12/14 12:15:48;;;;;;;7.30;5.35;;;18.70;37.20;;;;;;5052816;28;20052;-40
2022/12/14 12:18:16;;;;;;;7.15;5.28;;;18.70;37.30;;;;;;5052361;28;20045;-42
2022/12/14 12:20:47;;;;;;;7.45;5.57;;;18.80;37.40;;;;;;5052722;28;20045;-42
2022/12/14 12:23:18;;;;;;;7.25;5.28;;;18.80;37.40;;;;;;5052507;28;20053;-40
2022/12/14 12:25:45;;;;;;;7.55;5.65;;;18.70;37.30;;;;;;5052579;28;20084;-42
2022/12/14 12:28:16;;;;;;;6.25;5.15;;;18.70;37.30;;;;;;5051597;28;20486;-41
2022/12/14 12:30:44;;;;;;;6.30;5.28;;;18.70;37.30;;;;;;5052492;28;20045;-42
2022/12/14 12:33:19;;;;;;;6.60;5.28;;;18.80;37.40;;;;;;5051933;28;20049;-40
2022/12/14 12:35:48;;;;;;;7.03;4.68;;;18.80;37.40;;;;;;5052452;28;20580;-41
2022/12/14 12:38:20;;;;;;;5.88;4.90;;;18.70;37.30;;;;;;5031227;28;20059;-40
2022/12/14 12:40:54;;;;;;;7.00;5.22;;;18.80;37.40;;;;;;5032676;28;20049;-42
2022/12/14 12:43:24;;;;;;;6.35;4.88;;;18.80;37.40;;;;;;5032400;28;20046;-41
2022/12/14 12:45:52;;;;;;;6.18;4.88;;;18.80;37.40;;;;;;5034234;28;20501;-43
2022/12/14 12:48:21;;;;;;;6.45;5.00;;;18.10;41.80;;;;;;5051950;28;20049;-40
2022/12/14 12:50:54;;;;;;;7.57;5.00;;;18.80;37.40;;;;;;5052176;28;20056;-42
2022/12/14 12:53:27;;;;;;;7.05;5.30;;;18.80;37.40;;;;;;5052071;28;20045;-42
2022/12/14 12:55:54;;;;;;;5.85;4.80;;;18.80;37.40;;;;;;5052156;28;20057;-40
2022/12/14 12:58:23;;;;;;;6.07;4.90;;;18.90;42.90;;;;;;5052117;28;20055;-39
2022/12/14 13:00:54;;;;;;;6.25;5.00;;;18.80;37.50;;;;;;5051801;28;20053;-43
2022/12/14 13:03:23;;;;;;;6.05;4.70;;;18.80;37.50;;;;;;5051524;28;20052;-42
2022/12/14 13:05:50;;;;;;;6.03;4.75;;;18.80;37.40;;;;;;5052126;28;20053;-41